sensor_id;sensor_type;location;lat;lon;timestamp;P1;durP1;ratioP1;P2;durP2;ratioP2
7074;SDS011;3578;51.568;6.932;2023-05-13T00:01:11;22.13;;;20.13;;
7074;SDS011;3578;51.568;6.932;2023-05-13T00:03:38;19.87;;;18.00;;
7074;SDS011;3578;51.568;6.932;2023-05-13T00:06:05;19.00;;;17.10;;
7074;SDS011;3578;51.568;6.932;2023-05-13T00:08:32;17.13;;;15.83;;
7074;SDS011;3578;51.568;6.932;2023-05-13T00:11:01;17.97;;;16.20;;
7074;SDS011;3578;51.568;6.932;2023-05-13T00:13:28;19.90;;;18.30;;
7074;SDS011;3578;51.568;6.932;2023-05-13T00:15:55;20.53;;;18.87;;
7074;SDS011;3578;51.568;6.932;2023-05-13T00:18:22;18.07;;;16.70;;
7074;SDS011;3578;51.568;6.932;2023-05-13T00:20:49;20.37;;;18.37;;
7074;SDS011;3578;51.568;6.932;2023-05-13T00:23:17;19.30;;;17.60;;
7074;SDS011;3578;51.568;6.932;2023-05-13T00:25:44;24.23;;;18.00;;
7074;SDS011;3578;51.568;6.932;2023-05-13T00:28:12;18.90;;;17.40;;
7074;SDS011;3578;51.568;6.932;2023-05-13T00:30:39;18.43;;;16.87;;
7074;SDS011;3578;51.568;6.932;2023-05-13T00:33:07;22.13;;;20.23;;
7074;SDS011;3578;51.568;6.932;2023-05-13T00:35:34;22.73;;;20.37;;
7074;SDS011;3578;51.568;6.932;2023-05-13T00:38:02;22.40;;;20.13;;
7074;SDS011;3578;51.568;6.932;2023-05-13T00:40:29;22.10;;;20.13;;
7074;SDS011;3578;51.568;6.932;2023-05-13T00:42:56;19.30;;;17.80;;
7074;SDS011;3578;51.568;6.932;2023-05-13T00:45:24;21.23;;;19.30;;
7074;SDS011;3578;51.568;6.932;2023-05-13T00:47:51;18.73;;;17.03;;
7074;SDS011;3578;51.568;6.932;2023-05-13T00:50:19;18.87;;;17.33;;
7074;SDS011;3578;51.568;6.932;2023-05-13T00:52:46;19.97;;;18.27;;
7074;SDS011;3578;51.568;6.932;2023-05-13T00:55:15;18.63;;;16.83;;
7074;SDS011;3578;51.568;6.932;2023-05-13T00:57:42;19.57;;;17.70;;
7074;SDS011;3578;51.568;6.932;2023-05-13T01:00:09;19.77;;;17.83;;
7074;SDS011;3578;51.568;6.932;2023-05-13T01:02:40;18.60;;;17.00;;
7074;SDS011;3578;51.568;6.932;2023-05-13T01:05:18;19.90;;;18.10;;
7074;SDS011;3578;51.568;6.932;2023-05-13T01:07:58;20.40;;;18.70;;
7074;SDS011;3578;51.568;6.932;2023-05-13T01:10:33;18.03;;;16.67;;
7074;SDS011;3578;51.568;6.932;2023-05-13T01:13:07;18.40;;;16.60;;
7074;SDS011;3578;51.568;6.932;2023-05-13T01:15:38;18.10;;;16.60;;
7074;SDS011;3578;51.568;6.932;2023-05-13T01:18:12;20.90;;;19.13;;
7074;SDS011;3578;51.568;6.932;2023-05-13T01:20:50;18.57;;;16.73;;
7074;SDS011;3578;51.568;6.932;2023-05-13T01:23:18;17.40;;;15.97;;
7074;SDS011;3578;51.568;6.932;2023-05-13T01:25:45;18.57;;;17.13;;
7074;SDS011;3578;51.568;6.932;2023-05-13T01:28:14;18.20;;;16.30;;
7074;SDS011;3578;51.568;6.932;2023-05-13T01:30:41;18.77;;;17.07;;
7074;SDS011;3578;51.568;6.932;2023-05-13T01:33:08;20.37;;;17.97;;
7074;SDS011;3578;51.568;6.932;2023-05-13T01:35:36;19.03;;;17.43;;
7074;SDS011;3578;51.568;6.932;2023-05-13T01:38:03;21.87;;;19.87;;
7074;SDS011;3578;51.568;6.932;2023-05-13T01:40:32;18.90;;;16.50;;
7074;SDS011;3578;51.568;6.932;2023-05-13T01:43:00;15.40;;;14.20;;
7074;SDS011;3578;51.568;6.932;2023-05-13T01:45:27;14.40;;;13.00;;
7074;SDS011;3578;51.568;6.932;2023-05-13T01:47:54;13.90;;;12.70;;
7074;SDS011;3578;51.568;6.932;2023-05-13T01:50:22;14.13;;;12.77;;
7074;SDS011;3578;51.568;6.932;2023-05-13T01:52:49;13.60;;;12.53;;
7074;SDS011;3578;51.568;6.932;2023-05-13T01:55:16;13.40;;;12.50;;
7074;SDS011;3578;51.568;6.932;2023-05-13T01:57:44;14.97;;;13.67;;
7074;SDS011;3578;51.568;6.932;2023-05-13T02:00:11;14.17;;;13.17;;
7074;SDS011;3578;51.568;6.932;2023-05-13T02:02:40;15.10;;;13.87;;
7074;SDS011;3578;51.568;6.932;2023-05-13T02:05:07;15.80;;;13.80;;
7074;SDS011;3578;51.568;6.932;2023-05-13T02:07:34;13.97;;;12.97;;
7074;SDS011;3578;51.568;6.932;2023-05-13T02:10:01;14.50;;;13.10;;
7074;SDS011;3578;51.568;6.932;2023-05-13T02:12:29;15.83;;;14.47;;
7074;SDS011;3578;51.568;6.932;2023-05-13T02:14:57;17.90;;;16.20;;
7074;SDS011;3578;51.568;6.932;2023-05-13T02:17:24;16.30;;;15.03;;
7074;SDS011;3578;51.568;6.932;2023-05-13T02:19:52;15.23;;;13.70;;
7074;SDS011;3578;51.568;6.932;2023-05-13T02:22:19;15.83;;;14.40;;
7074;SDS011;3578;51.568;6.932;2023-05-13T02:24:46;15.20;;;13.87;;
7074;SDS011;3578;51.568;6.932;2023-05-13T02:27:12;15.93;;;14.70;;
7074;SDS011;3578;51.568;6.932;2023-05-13T02:29:40;16.70;;;15.30;;
7074;SDS011;3578;51.568;6.932;2023-05-13T02:32:09;15.70;;;14.30;;
7074;SDS011;3578;51.568;6.932;2023-05-13T02:34:35;20.33;;;18.40;;
7074;SDS011;3578;51.568;6.932;2023-05-13T02:37:02;18.33;;;16.73;;
7074;SDS011;3578;51.568;6.932;2023-05-13T02:39:30;20.10;;;18.43;;
7074;SDS011;3578;51.568;6.932;2023-05-13T02:41:57;20.90;;;18.80;;
7074;SDS011;3578;51.568;6.932;2023-05-13T02:44:24;17.33;;;15.57;;
7074;SDS011;3578;51.568;6.932;2023-05-13T02:46:51;18.47;;;16.60;;
7074;SDS011;3578;51.568;6.932;2023-05-13T02:49:19;17.93;;;16.50;;
7074;SDS011;3578;51.568;6.932;2023-05-13T02:51:46;20.83;;;19.10;;
7074;SDS011;3578;51.568;6.932;2023-05-13T02:54:13;17.70;;;16.20;;
7074;SDS011;3578;51.568;6.932;2023-05-13T02:56:40;16.70;;;15.40;;
7074;SDS011;3578;51.568;6.932;2023-05-13T02:59:07;19.10;;;17.43;;
7074;SDS011;3578;51.568;6.932;2023-05-13T03:01:34;20.43;;;18.50;;
7074;SDS011;3578;51.568;6.932;2023-05-13T03:04:01;20.33;;;18.23;;
7074;SDS011;3578;51.568;6.932;2023-05-13T03:06:29;19.20;;;17.60;;
7074;SDS011;3578;51.568;6.932;2023-05-13T03:08:56;17.03;;;15.67;;
7074;SDS011;3578;51.568;6.932;2023-05-13T03:11:23;19.73;;;18.03;;
7074;SDS011;3578;51.568;6.932;2023-05-13T03:13:50;18.60;;;17.00;;
7074;SDS011;3578;51.568;6.932;2023-05-13T03:16:17;19.60;;;17.73;;
7074;SDS011;3578;51.568;6.932;2023-05-13T03:18:44;19.17;;;17.67;;
7074;SDS011;3578;51.568;6.932;2023-05-13T03:21:11;18.40;;;17.00;;
7074;SDS011;3578;51.568;6.932;2023-05-13T03:23:40;20.23;;;18.60;;
7074;SDS011;3578;51.568;6.932;2023-05-13T03:26:07;18.53;;;16.63;;
7074;SDS011;3578;51.568;6.932;2023-05-13T03:28:34;18.80;;;17.30;;
7074;SDS011;3578;51.568;6.932;2023-05-13T03:31:01;19.43;;;17.80;;
7074;SDS011;3578;51.568;6.932;2023-05-13T03:33:28;18.60;;;17.00;;
7074;SDS011;3578;51.568;6.932;2023-05-13T03:35:55;16.87;;;15.60;;
7074;SDS011;3578;51.568;6.932;2023-05-13T03:38:22;15.57;;;14.23;;
7074;SDS011;3578;51.568;6.932;2023-05-13T03:40:50;14.27;;;13.07;;
7074;SDS011;3578;51.568;6.932;2023-05-13T03:43:17;16.93;;;15.43;;
7074;SDS011;3578;51.568;6.932;2023-05-13T03:45:44;16.77;;;15.47;;
7074;SDS011;3578;51.568;6.932;2023-05-13T03:48:12;16.47;;;15.07;;
7074;SDS011;3578;51.568;6.932;2023-05-13T03:50:40;16.07;;;14.90;;
7074;SDS011;3578;51.568;6.932;2023-05-13T03:53:07;16.97;;;15.57;;
7074;SDS011;3578;51.568;6.932;2023-05-13T03:55:35;17.50;;;16.00;;
7074;SDS011;3578;51.568;6.932;2023-05-13T03:58:10;16.47;;;15.17;;
7074;SDS011;3578;51.568;6.932;2023-05-13T04:00:38;16.53;;;14.93;;
7074;SDS011;3578;51.568;6.932;2023-05-13T04:03:10;17.20;;;15.47;;
7074;SDS011;3578;51.568;6.932;2023-05-13T04:05:37;14.73;;;13.30;;
7074;SDS011;3578;51.568;6.932;2023-05-13T04:08:04;15.30;;;14.00;;
7074;SDS011;3578;51.568;6.932;2023-05-13T04:10:31;15.77;;;14.27;;
7074;SDS011;3578;51.568;6.932;2023-05-13T04:12:58;13.87;;;12.67;;
7074;SDS011;3578;51.568;6.932;2023-05-13T04:15:27;15.30;;;14.00;;
7074;SDS011;3578;51.568;6.932;2023-05-13T04:17:55;14.53;;;13.43;;
7074;SDS011;3578;51.568;6.932;2023-05-13T04:20:22;15.20;;;13.97;;
7074;SDS011;3578;51.568;6.932;2023-05-13T04:22:49;14.07;;;12.57;;
7074;SDS011;3578;51.568;6.932;2023-05-13T04:25:16;13.90;;;12.90;;
7074;SDS011;3578;51.568;6.932;2023-05-13T04:27:43;14.43;;;13.33;;
7074;SDS011;3578;51.568;6.932;2023-05-13T04:30:11;14.53;;;13.33;;
7074;SDS011;3578;51.568;6.932;2023-05-13T04:32:40;15.67;;;14.20;;
7074;SDS011;3578;51.568;6.932;2023-05-13T04:35:07;17.23;;;15.83;;
7074;SDS011;3578;51.568;6.932;2023-05-13T04:37:34;17.57;;;15.97;;
7074;SDS011;3578;51.568;6.932;2023-05-13T04:40:01;17.07;;;15.70;;
7074;SDS011;3578;51.568;6.932;2023-05-13T04:42:29;16.37;;;15.07;;
7074;SDS011;3578;51.568;6.932;2023-05-13T04:44:56;15.00;;;13.50;;
7074;SDS011;3578;51.568;6.932;2023-05-13T04:47:23;15.67;;;14.10;;
7074;SDS011;3578;51.568;6.932;2023-05-13T04:49:52;18.30;;;14.27;;
7074;SDS011;3578;51.568;6.932;2023-05-13T04:52:19;15.70;;;14.30;;
7074;SDS011;3578;51.568;6.932;2023-05-13T04:54:46;15.40;;;14.10;;
7074;SDS011;3578;51.568;6.932;2023-05-13T04:57:13;15.40;;;14.10;;
7074;SDS011;3578;51.568;6.932;2023-05-13T04:59:40;16.37;;;14.97;;
7074;SDS011;3578;51.568;6.932;2023-05-13T05:02:07;16.87;;;15.13;;
7074;SDS011;3578;51.568;6.932;2023-05-13T05:04:34;16.60;;;15.30;;
7074;SDS011;3578;51.568;6.932;2023-05-13T05:07:02;17.23;;;15.83;;
7074;SDS011;3578;51.568;6.932;2023-05-13T05:09:30;15.30;;;14.10;;
7074;SDS011;3578;51.568;6.932;2023-05-13T05:11:57;15.50;;;14.30;;
7074;SDS011;3578;51.568;6.932;2023-05-13T05:14:24;16.80;;;15.10;;
7074;SDS011;3578;51.568;6.932;2023-05-13T05:16:51;16.47;;;15.13;;
7074;SDS011;3578;51.568;6.932;2023-05-13T05:19:18;17.07;;;15.63;;
7074;SDS011;3578;51.568;6.932;2023-05-13T05:21:47;13.87;;;12.87;;
7074;SDS011;3578;51.568;6.932;2023-05-13T05:24:17;16.77;;;15.47;;
7074;SDS011;3578;51.568;6.932;2023-05-13T05:26:44;15.00;;;13.80;;
7074;SDS011;3578;51.568;6.932;2023-05-13T05:29:11;16.37;;;15.10;;
7074;SDS011;3578;51.568;6.932;2023-05-13T05:31:38;16.77;;;15.47;;
7074;SDS011;3578;51.568;6.932;2023-05-13T05:34:05;19.60;;;17.63;;
7074;SDS011;3578;51.568;6.932;2023-05-13T05:36:32;21.80;;;19.00;;
7074;SDS011;3578;51.568;6.932;2023-05-13T05:38:58;20.63;;;18.00;;
7074;SDS011;3578;51.568;6.932;2023-05-13T05:41:27;18.30;;;16.70;;
7074;SDS011;3578;51.568;6.932;2023-05-13T05:43:54;17.80;;;16.40;;
7074;SDS011;3578;51.568;6.932;2023-05-13T05:46:21;19.87;;;17.90;;
7074;SDS011;3578;51.568;6.932;2023-05-13T05:48:48;17.73;;;16.13;;
7074;SDS011;3578;51.568;6.932;2023-05-13T05:51:15;18.37;;;16.87;;
7074;SDS011;3578;51.568;6.932;2023-05-13T05:53:42;18.20;;;16.60;;
7074;SDS011;3578;51.568;6.932;2023-05-13T05:56:09;19.07;;;17.17;;
7074;SDS011;3578;51.568;6.932;2023-05-13T05:58:37;24.10;;;17.77;;
7074;SDS011;3578;51.568;6.932;2023-05-13T06:01:04;18.20;;;16.40;;
7074;SDS011;3578;51.568;6.932;2023-05-13T06:03:31;17.03;;;15.30;;
7074;SDS011;3578;51.568;6.932;2023-05-13T06:05:58;17.97;;;16.43;;
7074;SDS011;3578;51.568;6.932;2023-05-13T06:08:25;18.27;;;16.67;;
7074;SDS011;3578;51.568;6.932;2023-05-13T06:10:54;18.80;;;17.10;;
7074;SDS011;3578;51.568;6.932;2023-05-13T06:13:22;18.83;;;17.10;;
7074;SDS011;3578;51.568;6.932;2023-05-13T06:15:50;18.57;;;16.83;;
7074;SDS011;3578;51.568;6.932;2023-05-13T06:18:17;19.47;;;17.10;;
7074;SDS011;3578;51.568;6.932;2023-05-13T06:20:44;18.80;;;16.90;;
7074;SDS011;3578;51.568;6.932;2023-05-13T06:23:11;17.73;;;16.20;;
7074;SDS011;3578;51.568;6.932;2023-05-13T06:25:39;18.00;;;16.13;;
7074;SDS011;3578;51.568;6.932;2023-05-13T06:28:06;17.67;;;15.90;;
7074;SDS011;3578;51.568;6.932;2023-05-13T06:30:34;17.17;;;15.67;;
7074;SDS011;3578;51.568;6.932;2023-05-13T06:33:03;16.57;;;15.17;;
7074;SDS011;3578;51.568;6.932;2023-05-13T06:35:30;17.03;;;15.33;;
7074;SDS011;3578;51.568;6.932;2023-05-13T06:37:57;14.90;;;13.60;;
7074;SDS011;3578;51.568;6.932;2023-05-13T06:40:24;15.73;;;14.27;;
7074;SDS011;3578;51.568;6.932;2023-05-13T06:42:51;14.40;;;13.10;;
7074;SDS011;3578;51.568;6.932;2023-05-13T06:45:18;19.83;;;14.73;;
7074;SDS011;3578;51.568;6.932;2023-05-13T06:47:47;16.53;;;15.13;;
7074;SDS011;3578;51.568;6.932;2023-05-13T06:50:16;16.00;;;14.50;;
7074;SDS011;3578;51.568;6.932;2023-05-13T06:52:43;15.63;;;13.63;;
7074;SDS011;3578;51.568;6.932;2023-05-13T06:55:11;12.90;;;11.73;;
7074;SDS011;3578;51.568;6.932;2023-05-13T06:57:38;11.90;;;10.40;;
7074;SDS011;3578;51.568;6.932;2023-05-13T07:00:05;10.70;;;9.77;;
7074;SDS011;3578;51.568;6.932;2023-05-13T07:02:33;9.83;;;9.03;;
7074;SDS011;3578;51.568;6.932;2023-05-13T07:04:59;10.10;;;9.20;;
7074;SDS011;3578;51.568;6.932;2023-05-13T07:07:28;11.83;;;8.10;;
7074;SDS011;3578;51.568;6.932;2023-05-13T07:09:55;11.30;;;9.20;;
7074;SDS011;3578;51.568;6.932;2023-05-13T07:12:22;10.13;;;9.17;;
7074;SDS011;3578;51.568;6.932;2023-05-13T07:14:49;9.13;;;8.43;;
7074;SDS011;3578;51.568;6.932;2023-05-13T07:17:16;11.93;;;8.30;;
7074;SDS011;3578;51.568;6.932;2023-05-13T07:19:43;12.93;;;8.87;;
7074;SDS011;3578;51.568;6.932;2023-05-13T07:22:10;9.87;;;8.63;;
7074;SDS011;3578;51.568;6.932;2023-05-13T07:24:38;9.90;;;8.40;;
7074;SDS011;3578;51.568;6.932;2023-05-13T07:27:06;8.90;;;7.90;;
7074;SDS011;3578;51.568;6.932;2023-05-13T07:29:33;9.73;;;8.80;;
7074;SDS011;3578;51.568;6.932;2023-05-13T07:32:02;9.17;;;8.30;;
7074;SDS011;3578;51.568;6.932;2023-05-13T07:34:30;8.83;;;8.23;;
7074;SDS011;3578;51.568;6.932;2023-05-13T07:36:57;11.00;;;9.00;;
7074;SDS011;3578;51.568;6.932;2023-05-13T07:39:24;9.63;;;8.73;;
7074;SDS011;3578;51.568;6.932;2023-05-13T07:41:52;9.43;;;8.70;;
7074;SDS011;3578;51.568;6.932;2023-05-13T07:44:19;13.97;;;9.17;;
7074;SDS011;3578;51.568;6.932;2023-05-13T07:46:46;10.87;;;8.97;;
7074;SDS011;3578;51.568;6.932;2023-05-13T07:49:15;12.93;;;9.30;;
7074;SDS011;3578;51.568;6.932;2023-05-13T07:51:42;11.40;;;8.90;;
7074;SDS011;3578;51.568;6.932;2023-05-13T07:54:09;9.33;;;8.43;;
7074;SDS011;3578;51.568;6.932;2023-05-13T07:56:36;10.63;;;7.13;;
7074;SDS011;3578;51.568;6.932;2023-05-13T07:59:04;10.93;;;8.00;;
7074;SDS011;3578;51.568;6.932;2023-05-13T08:01:31;9.17;;;8.20;;
7074;SDS011;3578;51.568;6.932;2023-05-13T08:03:58;9.17;;;8.30;;
7074;SDS011;3578;51.568;6.932;2023-05-13T08:06:25;9.00;;;7.27;;
7074;SDS011;3578;51.568;6.932;2023-05-13T08:08:52;8.03;;;7.23;;
7074;SDS011;3578;51.568;6.932;2023-05-13T08:11:19;8.40;;;7.70;;
7074;SDS011;3578;51.568;6.932;2023-05-13T08:13:46;10.97;;;9.87;;
7074;SDS011;3578;51.568;6.932;2023-05-13T08:16:14;9.20;;;8.30;;
7074;SDS011;3578;51.568;6.932;2023-05-13T08:18:41;10.13;;;9.10;;
7074;SDS011;3578;51.568;6.932;2023-05-13T08:21:09;8.77;;;7.10;;
7074;SDS011;3578;51.568;6.932;2023-05-13T08:23:36;15.30;;;7.60;;
7074;SDS011;3578;51.568;6.932;2023-05-13T08:26:03;7.90;;;6.50;;
7074;SDS011;3578;51.568;6.932;2023-05-13T08:28:30;7.37;;;6.63;;
7074;SDS011;3578;51.568;6.932;2023-05-13T08:30:57;7.23;;;6.60;;
7074;SDS011;3578;51.568;6.932;2023-05-13T08:33:28;6.30;;;5.57;;
7074;SDS011;3578;51.568;6.932;2023-05-13T08:35:55;7.00;;;6.30;;
7074;SDS011;3578;51.568;6.932;2023-05-13T08:38:23;10.10;;;6.50;;
7074;SDS011;3578;51.568;6.932;2023-05-13T08:40:50;9.00;;;7.17;;
7074;SDS011;3578;51.568;6.932;2023-05-13T08:43:17;10.33;;;6.57;;
7074;SDS011;3578;51.568;6.932;2023-05-13T08:45:46;8.80;;;7.77;;
7074;SDS011;3578;51.568;6.932;2023-05-13T08:48:15;12.73;;;7.37;;
7074;SDS011;3578;51.568;6.932;2023-05-13T08:50:44;14.53;;;7.80;;
7074;SDS011;3578;51.568;6.932;2023-05-13T08:53:12;10.70;;;8.60;;
7074;SDS011;3578;51.568;6.932;2023-05-13T08:55:43;11.90;;;6.60;;
7074;SDS011;3578;51.568;6.932;2023-05-13T08:58:10;7.90;;;6.97;;
7074;SDS011;3578;51.568;6.932;2023-05-13T09:00:37;12.37;;;7.60;;
7074;SDS011;3578;51.568;6.932;2023-05-13T09:03:05;8.30;;;7.50;;
7074;SDS011;3578;51.568;6.932;2023-05-13T09:05:32;7.93;;;6.77;;
7074;SDS011;3578;51.568;6.932;2023-05-13T09:08:03;9.27;;;6.63;;
7074;SDS011;3578;51.568;6.932;2023-05-13T09:10:33;6.50;;;5.90;;
7074;SDS011;3578;51.568;6.932;2023-05-13T09:13:01;5.90;;;5.30;;
7074;SDS011;3578;51.568;6.932;2023-05-13T09:15:29;9.93;;;6.00;;
7074;SDS011;3578;51.568;6.932;2023-05-13T09:17:58;6.40;;;5.33;;
7074;SDS011;3578;51.568;6.932;2023-05-13T09:20:27;5.90;;;5.10;;
7074;SDS011;3578;51.568;6.932;2023-05-13T09:22:55;7.90;;;4.90;;
7074;SDS011;3578;51.568;6.932;2023-05-13T09:25:24;4.80;;;4.37;;
7074;SDS011;3578;51.568;6.932;2023-05-13T09:27:53;5.00;;;4.40;;
7074;SDS011;3578;51.568;6.932;2023-05-13T09:30:22;13.07;;;4.63;;
7074;SDS011;3578;51.568;6.932;2023-05-13T09:33:03;7.70;;;4.40;;
7074;SDS011;3578;51.568;6.932;2023-05-13T09:35:33;5.67;;;4.50;;
7074;SDS011;3578;51.568;6.932;2023-05-13T09:38:10;8.37;;;4.60;;
7074;SDS011;3578;51.568;6.932;2023-05-13T09:40:41;4.10;;;3.73;;
7074;SDS011;3578;51.568;6.932;2023-05-13T09:43:16;5.47;;;4.97;;
7074;SDS011;3578;51.568;6.932;2023-05-13T09:45:45;8.73;;;3.73;;
7074;SDS011;3578;51.568;6.932;2023-05-13T09:48:12;3.97;;;3.67;;
7074;SDS011;3578;51.568;6.932;2023-05-13T09:50:45;4.60;;;4.10;;
7074;SDS011;3578;51.568;6.932;2023-05-13T09:53:13;4.47;;;3.60;;
7074;SDS011;3578;51.568;6.932;2023-05-13T09:55:44;6.60;;;3.90;;
7074;SDS011;3578;51.568;6.932;2023-05-13T09:58:12;8.30;;;4.07;;
7074;SDS011;3578;51.568;6.932;2023-05-13T10:00:40;9.83;;;3.93;;
7074;SDS011;3578;51.568;6.932;2023-05-13T10:03:08;4.93;;;3.37;;
7074;SDS011;3578;51.568;6.932;2023-05-13T10:05:35;6.53;;;4.20;;
7074;SDS011;3578;51.568;6.932;2023-05-13T10:08:04;4.53;;;4.13;;
7074;SDS011;3578;51.568;6.932;2023-05-13T10:10:35;8.27;;;4.93;;
7074;SDS011;3578;51.568;6.932;2023-05-13T10:13:04;6.17;;;4.70;;
7074;SDS011;3578;51.568;6.932;2023-05-13T10:15:35;14.70;;;4.20;;
7074;SDS011;3578;51.568;6.932;2023-05-13T10:18:06;11.70;;;8.33;;
7074;SDS011;3578;51.568;6.932;2023-05-13T10:20:33;4.60;;;4.20;;
7074;SDS011;3578;51.568;6.932;2023-05-13T10:23:01;5.87;;;3.83;;
7074;SDS011;3578;51.568;6.932;2023-05-13T10:25:28;13.97;;;4.60;;
7074;SDS011;3578;51.568;6.932;2023-05-13T10:27:56;8.47;;;3.70;;
7074;SDS011;3578;51.568;6.932;2023-05-13T10:30:25;4.23;;;3.80;;
7074;SDS011;3578;51.568;6.932;2023-05-13T10:32:56;4.97;;;4.10;;
7074;SDS011;3578;51.568;6.932;2023-05-13T10:35:24;10.10;;;4.10;;
7074;SDS011;3578;51.568;6.932;2023-05-13T10:37:59;4.43;;;4.03;;
7074;SDS011;3578;51.568;6.932;2023-05-13T10:40:37;8.93;;;4.23;;
7074;SDS011;3578;51.568;6.932;2023-05-13T10:43:34;7.83;;;4.37;;
7074;SDS011;3578;51.568;6.932;2023-05-13T10:46:03;3.57;;;3.20;;
7074;SDS011;3578;51.568;6.932;2023-05-13T10:48:38;4.90;;;3.50;;
7074;SDS011;3578;51.568;6.932;2023-05-13T10:51:07;8.40;;;4.10;;
7074;SDS011;3578;51.568;6.932;2023-05-13T10:53:41;5.60;;;3.80;;
7074;SDS011;3578;51.568;6.932;2023-05-13T10:56:11;11.20;;;3.93;;
7074;SDS011;3578;51.568;6.932;2023-05-13T10:58:38;5.87;;;3.67;;
7074;SDS011;3578;51.568;6.932;2023-05-13T11:01:13;8.93;;;3.50;;
7074;SDS011;3578;51.568;6.932;2023-05-13T11:03:49;9.27;;;4.20;;
7074;SDS011;3578;51.568;6.932;2023-05-13T11:06:21;7.83;;;4.53;;
7074;SDS011;3578;51.568;6.932;2023-05-13T11:08:51;4.77;;;3.33;;
7074;SDS011;3578;51.568;6.932;2023-05-13T11:11:22;3.80;;;3.50;;
7074;SDS011;3578;51.568;6.932;2023-05-13T11:13:52;6.63;;;3.73;;
7074;SDS011;3578;51.568;6.932;2023-05-13T11:16:22;4.23;;;3.77;;
7074;SDS011;3578;51.568;6.932;2023-05-13T11:18:50;4.10;;;3.80;;
7074;SDS011;3578;51.568;6.932;2023-05-13T11:21:27;3.87;;;3.50;;
7074;SDS011;3578;51.568;6.932;2023-05-13T11:23:56;5.93;;;3.90;;
7074;SDS011;3578;51.568;6.932;2023-05-13T11:26:25;8.20;;;3.53;;
7074;SDS011;3578;51.568;6.932;2023-05-13T11:29:06;4.20;;;3.40;;
7074;SDS011;3578;51.568;6.932;2023-05-13T11:31:45;6.83;;;3.70;;
7074;SDS011;3578;51.568;6.932;2023-05-13T11:34:17;3.73;;;3.40;;
7074;SDS011;3578;51.568;6.932;2023-05-13T11:36:45;5.97;;;3.30;;
7074;SDS011;3578;51.568;6.932;2023-05-13T11:39:15;5.10;;;3.43;;
7074;SDS011;3578;51.568;6.932;2023-05-13T11:41:44;6.57;;;3.50;;
7074;SDS011;3578;51.568;6.932;2023-05-13T11:44:13;4.77;;;3.40;;
7074;SDS011;3578;51.568;6.932;2023-05-13T11:46:49;3.77;;;3.30;;
7074;SDS011;3578;51.568;6.932;2023-05-13T11:49:33;3.53;;;3.20;;
7074;SDS011;3578;51.568;6.932;2023-05-13T11:52:05;3.60;;;3.30;;
7074;SDS011;3578;51.568;6.932;2023-05-13T11:54:41;5.30;;;3.63;;
7074;SDS011;3578;51.568;6.932;2023-05-13T11:57:17;4.37;;;3.30;;
7074;SDS011;3578;51.568;6.932;2023-05-13T11:59:48;15.43;;;4.57;;
7074;SDS011;3578;51.568;6.932;2023-05-13T12:02:22;5.17;;;3.50;;
7074;SDS011;3578;51.568;6.932;2023-05-13T12:04:52;7.80;;;3.60;;
7074;SDS011;3578;51.568;6.932;2023-05-13T12:07:20;6.27;;;3.73;;
7074;SDS011;3578;51.568;6.932;2023-05-13T12:09:48;6.40;;;3.37;;
7074;SDS011;3578;51.568;6.932;2023-05-13T12:12:17;6.33;;;3.40;;
7074;SDS011;3578;51.568;6.932;2023-05-13T12:14:45;8.53;;;3.80;;
7074;SDS011;3578;51.568;6.932;2023-05-13T12:17:14;6.90;;;3.70;;
7074;SDS011;3578;51.568;6.932;2023-05-13T12:22:34;3.70;;;3.40;;
7074;SDS011;3578;51.568;6.932;2023-05-13T12:28:06;5.60;;;3.17;;
7074;SDS011;3578;51.568;6.932;2023-05-13T12:30:36;4.93;;;2.93;;
7074;SDS011;3578;51.568;6.932;2023-05-13T12:33:05;6.20;;;3.73;;
7074;SDS011;3578;51.568;6.932;2023-05-13T12:35:39;33.93;;;5.43;;
7074;SDS011;3578;51.568;6.932;2023-05-13T12:38:06;4.97;;;3.00;;
7074;SDS011;3578;51.568;6.932;2023-05-13T12:40:33;5.23;;;3.00;;
7074;SDS011;3578;51.568;6.932;2023-05-13T12:43:00;4.53;;;2.70;;
7074;SDS011;3578;51.568;6.932;2023-05-13T12:45:28;3.60;;;3.30;;
7074;SDS011;3578;51.568;6.932;2023-05-13T12:47:56;3.57;;;3.17;;
7074;SDS011;3578;51.568;6.932;2023-05-13T12:50:24;3.87;;;3.00;;
7074;SDS011;3578;51.568;6.932;2023-05-13T12:52:53;5.03;;;3.47;;
7074;SDS011;3578;51.568;6.932;2023-05-13T12:55:21;3.43;;;2.80;;
7074;SDS011;3578;51.568;6.932;2023-05-13T12:57:54;4.47;;;3.13;;
7074;SDS011;3578;51.568;6.932;2023-05-13T13:00:24;3.23;;;2.93;;
7074;SDS011;3578;51.568;6.932;2023-05-13T13:02:51;7.63;;;3.33;;
7074;SDS011;3578;51.568;6.932;2023-05-13T13:05:18;3.83;;;3.53;;
7074;SDS011;3578;51.568;6.932;2023-05-13T13:07:46;3.50;;;3.20;;
7074;SDS011;3578;51.568;6.932;2023-05-13T13:10:14;6.57;;;3.40;;
7074;SDS011;3578;51.568;6.932;2023-05-13T13:12:41;4.80;;;3.43;;
7074;SDS011;3578;51.568;6.932;2023-05-13T13:15:09;3.43;;;3.13;;
7074;SDS011;3578;51.568;6.932;2023-05-13T13:17:36;3.53;;;2.80;;
7074;SDS011;3578;51.568;6.932;2023-05-13T13:20:04;14.43;;;3.33;;
7074;SDS011;3578;51.568;6.932;2023-05-13T13:22:32;4.53;;;2.80;;
7074;SDS011;3578;51.568;6.932;2023-05-13T13:25:01;3.40;;;3.10;;
7074;SDS011;3578;51.568;6.932;2023-05-13T13:27:32;8.23;;;3.73;;
7074;SDS011;3578;51.568;6.932;2023-05-13T13:29:59;10.57;;;3.87;;
7074;SDS011;3578;51.568;6.932;2023-05-13T13:32:26;4.97;;;3.40;;
7074;SDS011;3578;51.568;6.932;2023-05-13T13:34:53;10.33;;;3.37;;
7074;SDS011;3578;51.568;6.932;2023-05-13T13:37:22;19.27;;;4.00;;
7074;SDS011;3578;51.568;6.932;2023-05-13T13:39:48;8.90;;;3.30;;
7074;SDS011;3578;51.568;6.932;2023-05-13T13:42:15;5.97;;;5.00;;
7074;SDS011;3578;51.568;6.932;2023-05-13T13:44:44;5.07;;;4.33;;
7074;SDS011;3578;51.568;6.932;2023-05-13T13:47:11;4.13;;;3.73;;
7074;SDS011;3578;51.568;6.932;2023-05-13T13:49:38;8.63;;;4.43;;
7074;SDS011;3578;51.568;6.932;2023-05-13T13:52:05;7.93;;;5.17;;
7074;SDS011;3578;51.568;6.932;2023-05-13T13:54:34;4.83;;;4.13;;
7074;SDS011;3578;51.568;6.932;2023-05-13T13:57:01;6.20;;;4.20;;
7074;SDS011;3578;51.568;6.932;2023-05-13T13:59:29;3.67;;;3.20;;
7074;SDS011;3578;51.568;6.932;2023-05-13T14:01:57;5.33;;;3.17;;
7074;SDS011;3578;51.568;6.932;2023-05-13T14:04:24;6.87;;;3.50;;
7074;SDS011;3578;51.568;6.932;2023-05-13T14:06:51;6.87;;;4.00;;
7074;SDS011;3578;51.568;6.932;2023-05-13T14:09:20;4.83;;;3.80;;
7074;SDS011;3578;51.568;6.932;2023-05-13T14:11:47;3.93;;;3.23;;
7074;SDS011;3578;51.568;6.932;2023-05-13T14:14:14;3.80;;;3.30;;
7074;SDS011;3578;51.568;6.932;2023-05-13T14:16:41;3.57;;;3.27;;
7074;SDS011;3578;51.568;6.932;2023-05-13T14:19:10;3.53;;;3.23;;
7074;SDS011;3578;51.568;6.932;2023-05-13T14:21:37;7.30;;;3.73;;
7074;SDS011;3578;51.568;6.932;2023-05-13T14:24:04;4.63;;;2.73;;
7074;SDS011;3578;51.568;6.932;2023-05-13T14:26:32;5.83;;;2.93;;
7074;SDS011;3578;51.568;6.932;2023-05-13T14:29:00;4.27;;;3.30;;
7074;SDS011;3578;51.568;6.932;2023-05-13T14:31:27;5.33;;;3.10;;
7074;SDS011;3578;51.568;6.932;2023-05-13T14:33:54;11.33;;;3.43;;
7074;SDS011;3578;51.568;6.932;2023-05-13T14:36:23;7.47;;;3.97;;
7074;SDS011;3578;51.568;6.932;2023-05-13T14:38:51;5.80;;;3.10;;
7074;SDS011;3578;51.568;6.932;2023-05-13T14:41:18;5.50;;;3.20;;
7074;SDS011;3578;51.568;6.932;2023-05-13T14:43:46;11.10;;;3.40;;
7074;SDS011;3578;51.568;6.932;2023-05-13T14:46:13;8.40;;;3.63;;
7074;SDS011;3578;51.568;6.932;2023-05-13T14:48:41;6.73;;;2.80;;
7074;SDS011;3578;51.568;6.932;2023-05-13T14:51:08;10.77;;;4.07;;
7074;SDS011;3578;51.568;6.932;2023-05-13T14:53:37;7.90;;;3.20;;
7074;SDS011;3578;51.568;6.932;2023-05-13T14:56:05;6.20;;;3.20;;
7074;SDS011;3578;51.568;6.932;2023-05-13T14:58:32;7.77;;;2.97;;
7074;SDS011;3578;51.568;6.932;2023-05-13T15:00:59;6.07;;;3.50;;
7074;SDS011;3578;51.568;6.932;2023-05-13T15:03:26;4.23;;;3.10;;
7074;SDS011;3578;51.568;6.932;2023-05-13T15:05:53;7.77;;;2.53;;
7074;SDS011;3578;51.568;6.932;2023-05-13T15:08:22;11.63;;;3.50;;
7074;SDS011;3578;51.568;6.932;2023-05-13T15:10:50;14.20;;;3.70;;
7074;SDS011;3578;51.568;6.932;2023-05-13T15:13:17;15.07;;;3.57;;